sensor_id;sensor_type;location;lat;lon;timestamp;temperature;humidity
20041;DHT22;10181;48.072;9.884;2023-06-26T00:00:14;14.10;99.90
20041;DHT22;10181;48.072;9.884;2023-06-26T00:02:40;14.10;99.90
20041;DHT22;10181;48.072;9.884;2023-06-26T00:05:06;14.10;99.90
20041;DHT22;10181;48.072;9.884;2023-06-26T00:07:32;14.10;99.90
20041;DHT22;10181;48.072;9.884;2023-06-26T00:10:00;14.10;99.90
20041;DHT22;10181;48.072;9.884;2023-06-26T00:12:26;14.00;99.90
20041;DHT22;10181;48.072;9.884;2023-06-26T00:14:52;13.90;99.90
20041;DHT22;10181;48.072;9.884;2023-06-26T00:17:18;13.80;99.90
20041;DHT22;10181;48.072;9.884;2023-06-26T00:19:44;13.80;99.90
20041;DHT22;10181;48.072;9.884;2023-06-26T00:22:09;13.70;99.90
20041;DHT22;10181;48.072;9.884;2023-06-26T00:24:35;13.70;99.90
20041;DHT22;10181;48.072;9.884;2023-06-26T00:27:01;13.70;99.90
20041;DHT22;10181;48.072;9.884;2023-06-26T00:29:26;13.70;99.90
20041;DHT22;10181;48.072;9.884;2023-06-26T00:31:52;13.70;99.90
20041;DHT22;10181;48.072;9.884;2023-06-26T00:34:18;13.70;99.90
20041;DHT22;10181;48.072;9.884;2023-06-26T00:36:44;13.70;99.90
20041;DHT22;10181;48.072;9.884;2023-06-26T00:39:10;13.80;99.90
20041;DHT22;10181;48.072;9.884;2023-06-26T00:41:39;13.80;99.90
20041;DHT22;10181;48.072;9.884;2023-06-26T00:44:05;13.80;99.90
20041;DHT22;10181;48.072;9.884;2023-06-26T00:46:31;13.80;99.90
20041;DHT22;10181;48.072;9.884;2023-06-26T00:48:59;13.80;99.90
20041;DHT22;10181;48.072;9.884;2023-06-26T00:51:27;13.70;99.90
20041;DHT22;10181;48.072;9.884;2023-06-26T00:53:54;13.60;99.90
20041;DHT22;10181;48.072;9.884;2023-06-26T00:56:20;13.60;99.90
20041;DHT22;10181;48.072;9.884;2023-06-26T00:58:45;13.50;99.90
20041;DHT22;10181;48.072;9.884;2023-06-26T01:01:11;13.50;99.90
20041;DHT22;10181;48.072;9.884;2023-06-26T01:03:41;13.50;99.90
20041;DHT22;10181;48.072;9.884;2023-06-26T01:06:07;13.40;99.90
20041;DHT22;10181;48.072;9.884;2023-06-26T01:08:37;13.40;99.90
20041;DHT22;10181;48.072;9.884;2023-06-26T01:11:03;13.40;99.90
20041;DHT22;10181;48.072;9.884;2023-06-26T01:13:30;13.30;99.90
20041;DHT22;10181;48.072;9.884;2023-06-26T01:15:57;13.30;99.90
20041;DHT22;10181;48.072;9.884;2023-06-26T01:18:25;13.30;99.90
20041;DHT22;10181;48.072;9.884;2023-06-26T01:20:51;13.20;99.90
20041;DHT22;10181;48.072;9.884;2023-06-26T01:28:41;13.00;99.90
20041;DHT22;10181;48.072;9.884;2023-06-26T01:31:07;13.00;99.90
20041;DHT22;10181;48.072;9.884;2023-06-26T01:33:34;13.00;99.90
20041;DHT22;10181;48.072;9.884;2023-06-26T01:36:00;13.00;99.90
20041;DHT22;10181;48.072;9.884;2023-06-26T01:38:26;12.90;99.90
20041;DHT22;10181;48.072;9.884;2023-06-26T01:40:53;13.00;99.90
20041;DHT22;10181;48.072;9.884;2023-06-26T01:46:21;13.00;99.90
20041;DHT22;10181;48.072;9.884;2023-06-26T01:51:41;13.00;99.90
20041;DHT22;10181;48.072;9.884;2023-06-26T01:54:10;13.00;99.90
20041;DHT22;10181;48.072;9.884;2023-06-26T01:56:40;13.00;99.90
20041;DHT22;10181;48.072;9.884;2023-06-26T01:59:07;13.10;99.90
20041;DHT22;10181;48.072;9.884;2023-06-26T02:01:34;13.10;99.90
20041;DHT22;10181;48.072;9.884;2023-06-26T02:04:00;13.10;99.90
20041;DHT22;10181;48.072;9.884;2023-06-26T02:06:26;13.20;99.90
20041;DHT22;10181;48.072;9.884;2023-06-26T02:08:51;13.20;99.90
20041;DHT22;10181;48.072;9.884;2023-06-26T02:11:17;13.20;99.90
20041;DHT22;10181;48.072;9.884;2023-06-26T02:13:42;13.20;99.90
20041;DHT22;10181;48.072;9.884;2023-06-26T02:16:08;13.20;99.90
20041;DHT22;10181;48.072;9.884;2023-06-26T02:18:34;13.20;99.90
20041;DHT22;10181;48.072;9.884;2023-06-26T02:20:59;13.20;99.90
20041;DHT22;10181;48.072;9.884;2023-06-26T02:23:25;13.10;99.90
20041;DHT22;10181;48.072;9.884;2023-06-26T02:25:51;13.10;99.90
20041;DHT22;10181;48.072;9.884;2023-06-26T02:28:16;13.10;99.90
20041;DHT22;10181;48.072;9.884;2023-06-26T02:30:42;13.10;99.90
20041;DHT22;10181;48.072;9.884;2023-06-26T02:33:08;13.20;99.90
20041;DHT22;10181;48.072;9.884;2023-06-26T02:35:33;13.20;99.90
20041;DHT22;10181;48.072;9.884;2023-06-26T02:37:59;13.10;99.90
20041;DHT22;10181;48.072;9.884;2023-06-26T02:40:25;13.10;99.90
20041;DHT22;10181;48.072;9.884;2023-06-26T02:42:50;13.10;99.90
20041;DHT22;10181;48.072;9.884;2023-06-26T02:45:16;13.20;99.90
20041;DHT22;10181;48.072;9.884;2023-06-26T02:47:41;13.10;99.90
20041;DHT22;10181;48.072;9.884;2023-06-26T02:50:07;13.00;99.90
20041;DHT22;10181;48.072;9.884;2023-06-26T02:52:33;13.00;99.90
20041;DHT22;10181;48.072;9.884;2023-06-26T02:54:59;13.00;99.90
20041;DHT22;10181;48.072;9.884;2023-06-26T02:57:25;13.00;99.90
20041;DHT22;10181;48.072;9.884;2023-06-26T02:59:50;13.10;99.90
20041;DHT22;10181;48.072;9.884;2023-06-26T03:02:16;13.10;99.90
20041;DHT22;10181;48.072;9.884;2023-06-26T03:04:41;13.10;99.90
20041;DHT22;10181;48.072;9.884;2023-06-26T03:07:08;13.20;99.90
20041;DHT22;10181;48.072;9.884;2023-06-26T03:09:34;13.20;99.90
20041;DHT22;10181;48.072;9.884;2023-06-26T03:12:00;13.30;99.90
20041;DHT22;10181;48.072;9.884;2023-06-26T03:14:25;13.30;99.90
20041;DHT22;10181;48.072;9.884;2023-06-26T03:16:52;13.30;99.90
20041;DHT22;10181;48.072;9.884;2023-06-26T03:19:18;13.30;99.90
20041;DHT22;10181;48.072;9.884;2023-06-26T03:21:44;13.30;99.90
20041;DHT22;10181;48.072;9.884;2023-06-26T03:24:09;13.30;99.90
20041;DHT22;10181;48.072;9.884;2023-06-26T03:26:35;13.30;99.90
20041;DHT22;10181;48.072;9.884;2023-06-26T03:29:01;13.30;99.90
20041;DHT22;10181;48.072;9.884;2023-06-26T03:31:26;13.30;99.90
20041;DHT22;10181;48.072;9.884;2023-06-26T03:33:52;13.40;99.90
20041;DHT22;10181;48.072;9.884;2023-06-26T03:36:18;13.40;99.90
20041;DHT22;10181;48.072;9.884;2023-06-26T03:38:43;13.40;99.90
20041;DHT22;10181;48.072;9.884;2023-06-26T03:41:09;13.50;99.90
20041;DHT22;10181;48.072;9.884;2023-06-26T03:43:35;13.50;99.90
20041;DHT22;10181;48.072;9.884;2023-06-26T03:46:00;13.40;99.90
20041;DHT22;10181;48.072;9.884;2023-06-26T03:48:26;13.50;99.90
20041;DHT22;10181;48.072;9.884;2023-06-26T03:50:52;13.60;99.90
20041;DHT22;10181;48.072;9.884;2023-06-26T03:53:17;13.60;99.90
20041;DHT22;10181;48.072;9.884;2023-06-26T03:55:43;13.70;99.90
20041;DHT22;10181;48.072;9.884;2023-06-26T03:58:09;13.90;99.90
20041;DHT22;10181;48.072;9.884;2023-06-26T04:00:34;14.10;99.90
20041;DHT22;10181;48.072;9.884;2023-06-26T04:03:00;14.40;99.90
20041;DHT22;10181;48.072;9.884;2023-06-26T04:05:26;14.60;99.90
20041;DHT22;10181;48.072;9.884;2023-06-26T04:07:52;14.70;99.90
20041;DHT22;10181;48.072;9.884;2023-06-26T04:10:18;14.80;99.90
20041;DHT22;10181;48.072;9.884;2023-06-26T04:12:45;14.90;99.90
20041;DHT22;10181;48.072;9.884;2023-06-26T04:15:10;15.00;99.90
20041;DHT22;10181;48.072;9.884;2023-06-26T04:17:36;15.10;99.90
20041;DHT22;10181;48.072;9.884;2023-06-26T04:20:02;15.20;99.90
20041;DHT22;10181;48.072;9.884;2023-06-26T04:22:32;15.30;99.90
20041;DHT22;10181;48.072;9.884;2023-06-26T04:24:57;15.30;99.90
20041;DHT22;10181;48.072;9.884;2023-06-26T04:27:24;15.50;99.90
20041;DHT22;10181;48.072;9.884;2023-06-26T04:29:50;15.60;99.90
20041;DHT22;10181;48.072;9.884;2023-06-26T04:32:15;15.70;99.90
20041;DHT22;10181;48.072;9.884;2023-06-26T04:34:41;15.90;99.90
20041;DHT22;10181;48.072;9.884;2023-06-26T04:37:09;16.10;99.90
20041;DHT22;10181;48.072;9.884;2023-06-26T04:39:38;16.30;99.90
20041;DHT22;10181;48.072;9.884;2023-06-26T04:42:05;16.50;99.90
20041;DHT22;10181;48.072;9.884;2023-06-26T04:44:32;16.70;99.90
20041;DHT22;10181;48.072;9.884;2023-06-26T04:46:58;16.80;99.90
20041;DHT22;10181;48.072;9.884;2023-06-26T04:49:23;16.90;99.90
20041;DHT22;10181;48.072;9.884;2023-06-26T04:51:49;17.00;99.90
20041;DHT22;10181;48.072;9.884;2023-06-26T04:54:16;17.10;99.90
20041;DHT22;10181;48.072;9.884;2023-06-26T04:56:42;17.30;99.90
20041;DHT22;10181;48.072;9.884;2023-06-26T04:59:09;17.40;99.90
20041;DHT22;10181;48.072;9.884;2023-06-26T05:01:38;17.50;99.90
20041;DHT22;10181;48.072;9.884;2023-06-26T05:04:05;17.60;99.90
20041;DHT22;10181;48.072;9.884;2023-06-26T05:06:31;17.60;99.90
20041;DHT22;10181;48.072;9.884;2023-06-26T05:08:56;17.70;99.90
20041;DHT22;10181;48.072;9.884;2023-06-26T05:11:22;17.70;99.90
20041;DHT22;10181;48.072;9.884;2023-06-26T05:13:49;17.80;99.90
20041;DHT22;10181;48.072;9.884;2023-06-26T05:16:15;17.80;99.90
20041;DHT22;10181;48.072;9.884;2023-06-26T05:18:40;17.90;99.90
20041;DHT22;10181;48.072;9.884;2023-06-26T05:21:06;18.00;99.90
20041;DHT22;10181;48.072;9.884;2023-06-26T05:23:33;18.10;99.90
20041;DHT22;10181;48.072;9.884;2023-06-26T05:26:00;18.30;99.90
20041;DHT22;10181;48.072;9.884;2023-06-26T05:28:27;18.50;99.90
20041;DHT22;10181;48.072;9.884;2023-06-26T05:30:54;18.60;99.90
20041;DHT22;10181;48.072;9.884;2023-06-26T05:33:23;18.70;99.90
20041;DHT22;10181;48.072;9.884;2023-06-26T05:35:49;18.90;99.90
20041;DHT22;10181;48.072;9.884;2023-06-26T05:38:16;19.00;99.90
20041;DHT22;10181;48.072;9.884;2023-06-26T05:40:42;19.00;99.90
20041;DHT22;10181;48.072;9.884;2023-06-26T05:43:08;19.10;99.90
20041;DHT22;10181;48.072;9.884;2023-06-26T05:45:34;19.20;99.90
20041;DHT22;10181;48.072;9.884;2023-06-26T05:48:00;19.30;99.90
20041;DHT22;10181;48.072;9.884;2023-06-26T05:50:26;19.40;99.90
20041;DHT22;10181;48.072;9.884;2023-06-26T05:52:52;19.50;99.90
20041;DHT22;10181;48.072;9.884;2023-06-26T05:55:18;19.50;99.90
20041;DHT22;10181;48.072;9.884;2023-06-26T05:57:45;19.60;99.90
20041;DHT22;10181;48.072;9.884;2023-06-26T06:00:12;19.70;99.90
20041;DHT22;10181;48.072;9.884;2023-06-26T06:02:38;19.70;99.90
20041;DHT22;10181;48.072;9.884;2023-06-26T06:05:04;19.80;99.90
20041;DHT22;10181;48.072;9.884;2023-06-26T06:07:32;19.90;99.90
20041;DHT22;10181;48.072;9.884;2023-06-26T06:09:58;20.00;99.90
20041;DHT22;10181;48.072;9.884;2023-06-26T06:12:23;20.10;99.90
20041;DHT22;10181;48.072;9.884;2023-06-26T06:14:49;20.10;99.90
20041;DHT22;10181;48.072;9.884;2023-06-26T06:17:15;20.30;99.90
20041;DHT22;10181;48.072;9.884;2023-06-26T06:19:40;20.30;99.90
20041;DHT22;10181;48.072;9.884;2023-06-26T06:22:06;20.30;99.90
20041;DHT22;10181;48.072;9.884;2023-06-26T06:24:31;20.40;99.90
20041;DHT22;10181;48.072;9.884;2023-06-26T06:26:57;20.50;99.90
20041;DHT22;10181;48.072;9.884;2023-06-26T06:29:23;20.50;99.90
20041;DHT22;10181;48.072;9.884;2023-06-26T06:31:48;20.60;99.90
20041;DHT22;10181;48.072;9.884;2023-06-26T06:34:14;20.80;99.90
20041;DHT22;10181;48.072;9.884;2023-06-26T06:36:40;20.90;99.90
20041;DHT22;10181;48.072;9.884;2023-06-26T06:39:06;21.00;99.90
20041;DHT22;10181;48.072;9.884;2023-06-26T06:41:31;21.10;99.90
20041;DHT22;10181;48.072;9.884;2023-06-26T06:43:57;21.30;99.90
20041;DHT22;10181;48.072;9.884;2023-06-26T06:46:22;21.40;99.90
20041;DHT22;10181;48.072;9.884;2023-06-26T06:48:48;21.50;99.90
20041;DHT22;10181;48.072;9.884;2023-06-26T06:51:14;21.60;99.90
20041;DHT22;10181;48.072;9.884;2023-06-26T06:53:40;21.70;99.90
20041;DHT22;10181;48.072;9.884;2023-06-26T06:56:05;21.80;99.90
20041;DHT22;10181;48.072;9.884;2023-06-26T06:58:31;21.90;99.90
20041;DHT22;10181;48.072;9.884;2023-06-26T07:00:59;22.00;99.90
20041;DHT22;10181;48.072;9.884;2023-06-26T07:03:25;22.00;99.90
20041;DHT22;10181;48.072;9.884;2023-06-26T07:05:50;22.10;99.90
20041;DHT22;10181;48.072;9.884;2023-06-26T07:08:16;22.20;99.90
20041;DHT22;10181;48.072;9.884;2023-06-26T07:10:42;22.20;99.90
20041;DHT22;10181;48.072;9.884;2023-06-26T07:13:08;22.30;99.90
20041;DHT22;10181;48.072;9.884;2023-06-26T07:15:34;22.40;99.90
20041;DHT22;10181;48.072;9.884;2023-06-26T07:17:59;22.50;99.90
20041;DHT22;10181;48.072;9.884;2023-06-26T07:20:25;22.60;99.90
20041;DHT22;10181;48.072;9.884;2023-06-26T07:22:52;22.60;99.90
20041;DHT22;10181;48.072;9.884;2023-06-26T07:25:18;22.70;99.90
20041;DHT22;10181;48.072;9.884;2023-06-26T07:27:43;22.80;99.90
20041;DHT22;10181;48.072;9.884;2023-06-26T07:30:10;22.90;99.90
20041;DHT22;10181;48.072;9.884;2023-06-26T07:32:37;23.00;99.90
20041;DHT22;10181;48.072;9.884;2023-06-26T07:35:04;23.10;99.90
20041;DHT22;10181;48.072;9.884;2023-06-26T07:37:30;23.10;99.90
20041;DHT22;10181;48.072;9.884;2023-06-26T07:39:56;23.20;99.90
20041;DHT22;10181;48.072;9.884;2023-06-26T07:42:21;23.30;99.90
20041;DHT22;10181;48.072;9.884;2023-06-26T07:44:47;23.30;99.90
20041;DHT22;10181;48.072;9.884;2023-06-26T07:47:13;23.40;99.90
20041;DHT22;10181;48.072;9.884;2023-06-26T07:49:39;23.50;99.90
20041;DHT22;10181;48.072;9.884;2023-06-26T07:52:06;23.50;99.90
20041;DHT22;10181;48.072;9.884;2023-06-26T07:54:32;23.60;99.90
20041;DHT22;10181;48.072;9.884;2023-06-26T07:57:03;23.60;99.90
20041;DHT22;10181;48.072;9.884;2023-06-26T07:59:32;23.60;99.90
20041;DHT22;10181;48.072;9.884;2023-06-26T08:01:58;23.70;99.90
20041;DHT22;10181;48.072;9.884;2023-06-26T08:04:26;23.70;99.90
20041;DHT22;10181;48.072;9.884;2023-06-26T08:06:56;23.90;99.90
20041;DHT22;10181;48.072;9.884;2023-06-26T08:09:24;24.00;99.90
20041;DHT22;10181;48.072;9.884;2023-06-26T08:11:50;24.10;99.90
20041;DHT22;10181;48.072;9.884;2023-06-26T08:14:16;24.10;99.90
20041;DHT22;10181;48.072;9.884;2023-06-26T08:16:43;24.10;99.90
20041;DHT22;10181;48.072;9.884;2023-06-26T08:19:10;24.20;99.90
20041;DHT22;10181;48.072;9.884;2023-06-26T08:21:36;24.20;99.90
20041;DHT22;10181;48.072;9.884;2023-06-26T08:24:02;24.30;99.90
20041;DHT22;10181;48.072;9.884;2023-06-26T08:26:28;24.30;99.90
20041;DHT22;10181;48.072;9.884;2023-06-26T08:28:54;24.30;99.90
20041;DHT22;10181;48.072;9.884;2023-06-26T08:31:19;24.30;99.90
20041;DHT22;10181;48.072;9.884;2023-06-26T08:33:46;24.40;99.90
20041;DHT22;10181;48.072;9.884;2023-06-26T08:36:12;24.50;99.90
20041;DHT22;10181;48.072;9.884;2023-06-26T08:38:37;24.50;99.90
20041;DHT22;10181;48.072;9.884;2023-06-26T08:41:06;24.60;99.90
20041;DHT22;10181;48.072;9.884;2023-06-26T08:43:32;24.70;99.90
20041;DHT22;10181;48.072;9.884;2023-06-26T08:45:58;24.70;99.90
20041;DHT22;10181;48.072;9.884;2023-06-26T08:48:24;24.80;99.90
20041;DHT22;10181;48.072;9.884;2023-06-26T08:50:52;24.90;99.90
20041;DHT22;10181;48.072;9.884;2023-06-26T08:53:29;25.00;99.90
20041;DHT22;10181;48.072;9.884;2023-06-26T08:55:59;25.20;99.90
20041;DHT22;10181;48.072;9.884;2023-06-26T08:58:25;25.20;99.90
20041;DHT22;10181;48.072;9.884;2023-06-26T09:00:52;25.30;99.90
20041;DHT22;10181;48.072;9.884;2023-06-26T09:03:17;25.40;99.90
20041;DHT22;10181;48.072;9.884;2023-06-26T09:05:43;25.50;99.90
20041;DHT22;10181;48.072;9.884;2023-06-26T09:08:09;25.60;99.90
20041;DHT22;10181;48.072;9.884;2023-06-26T09:10:35;25.70;99.90
20041;DHT22;10181;48.072;9.884;2023-06-26T09:13:00;25.80;99.90
20041;DHT22;10181;48.072;9.884;2023-06-26T09:15:36;25.90;99.90
20041;DHT22;10181;48.072;9.884;2023-06-26T09:18:05;26.00;99.90
20041;DHT22;10181;48.072;9.884;2023-06-26T09:20:31;26.10;99.90
20041;DHT22;10181;48.072;9.884;2023-06-26T09:23:00;26.10;99.90
20041;DHT22;10181;48.072;9.884;2023-06-26T09:25:27;26.20;99.90
20041;DHT22;10181;48.072;9.884;2023-06-26T09:27:54;26.30;99.90
20041;DHT22;10181;48.072;9.884;2023-06-26T09:30:20;26.40;99.90
20041;DHT22;10181;48.072;9.884;2023-06-26T09:32:46;26.50;99.60
20041;DHT22;10181;48.072;9.884;2023-06-26T09:35:12;26.60;99.70
20041;DHT22;10181;48.072;9.884;2023-06-26T09:37:37;26.70;99.60
20041;DHT22;10181;48.072;9.884;2023-06-26T09:40:04;26.70;99.60
20041;DHT22;10181;48.072;9.884;2023-06-26T09:42:30;26.80;99.50
20041;DHT22;10181;48.072;9.884;2023-06-26T09:44:56;26.80;97.10
20041;DHT22;10181;48.072;9.884;2023-06-26T09:47:24;26.80;98.30
20041;DHT22;10181;48.072;9.884;2023-06-26T09:49:49;26.90;97.90
20041;DHT22;10181;48.072;9.884;2023-06-26T09:52:18;26.90;98.40
20041;DHT22;10181;48.072;9.884;2023-06-26T09:54:44;26.90;97.60
20041;DHT22;10181;48.072;9.884;2023-06-26T09:57:12;27.00;97.50
20041;DHT22;10181;48.072;9.884;2023-06-26T09:59:39;26.90;98.10
20041;DHT22;10181;48.072;9.884;2023-06-26T10:02:05;26.90;97.30
20041;DHT22;10181;48.072;9.884;2023-06-26T10:04:31;26.80;98.50
20041;DHT22;10181;48.072;9.884;2023-06-26T10:06:58;26.80;98.90
20041;DHT22;10181;48.072;9.884;2023-06-26T10:09:26;26.80;99.90
20041;DHT22;10181;48.072;9.884;2023-06-26T10:12:19;27.00;99.80
20041;DHT22;10181;48.072;9.884;2023-06-26T10:14:43;27.10;98.80
20041;DHT22;10181;48.072;9.884;2023-06-26T10:17:15;27.20;99.20
20041;DHT22;10181;48.072;9.884;2023-06-26T10:19:43;27.30;97.50
20041;DHT22;10181;48.072;9.884;2023-06-26T10:22:12;27.40;98.00
20041;DHT22;10181;48.072;9.884;2023-06-26T10:24:40;27.40;97.60
20041;DHT22;10181;48.072;9.884;2023-06-26T10:27:20;27.30;96.70
20041;DHT22;10181;48.072;9.884;2023-06-26T10:29:50;27.20;97.10
20041;DHT22;10181;48.072;9.884;2023-06-26T10:32:18;27.10;96.60
20041;DHT22;10181;48.072;9.884;2023-06-26T10:34:45;27.00;97.60
20041;DHT22;10181;48.072;9.884;2023-06-26T10:37:12;26.90;96.80
20041;DHT22;10181;48.072;9.884;2023-06-26T10:39:51;26.90;96.20
20041;DHT22;10181;48.072;9.884;2023-06-26T10:42:20;26.90;96.50
20041;DHT22;10181;48.072;9.884;2023-06-26T10:45:15;26.80;95.80
20041;DHT22;10181;48.072;9.884;2023-06-26T10:47:42;26.80;96.90
20041;DHT22;10181;48.072;9.884;2023-06-26T10:50:20;26.80;95.80
20041;DHT22;10181;48.072;9.884;2023-06-26T10:52:46;26.80;94.70
20041;DHT22;10181;48.072;9.884;2023-06-26T10:55:31;26.90;94.60
20041;DHT22;10181;48.072;9.884;2023-06-26T10:57:57;27.10;94.60
20041;DHT22;10181;48.072;9.884;2023-06-26T11:00:23;27.20;95.00
20041;DHT22;10181;48.072;9.884;2023-06-26T11:02:52;27.30;95.40
20041;DHT22;10181;48.072;9.884;2023-06-26T11:05:28;27.40;96.60
20041;DHT22;10181;48.072;9.884;2023-06-26T11:08:07;27.40;93.10
20041;DHT22;10181;48.072;9.884;2023-06-26T11:10:53;27.40;90.80
20041;DHT22;10181;48.072;9.884;2023-06-26T11:13:20;27.50;93.00
20041;DHT22;10181;48.072;9.884;2023-06-26T11:15:50;27.70;92.90
20041;DHT22;10181;48.072;9.884;2023-06-26T11:18:16;27.80;92.60
20041;DHT22;10181;48.072;9.884;2023-06-26T11:20:42;28.00;92.30
20041;DHT22;10181;48.072;9.884;2023-06-26T11:23:08;28.10;92.20
20041;DHT22;10181;48.072;9.884;2023-06-26T11:25:35;28.20;91.40
20041;DHT22;10181;48.072;9.884;2023-06-26T11:28:03;28.30;91.40
20041;DHT22;10181;48.072;9.884;2023-06-26T11:30:29;28.40;90.70
20041;DHT22;10181;48.072;9.884;2023-06-26T11:33:05;28.30;91.20
20041;DHT22;10181;48.072;9.884;2023-06-26T11:35:31;28.20;91.00
20041;DHT22;10181;48.072;9.884;2023-06-26T11:37:59;28.20;90.00
20041;DHT22;10181;48.072;9.884;2023-06-26T11:40:27;28.30;90.80
20041;DHT22;10181;48.072;9.884;2023-06-26T11:42:56;28.30;88.40
20041;DHT22;10181;48.072;9.884;2023-06-26T11:45:22;28.30;89.70
20041;DHT22;10181;48.072;9.884;2023-06-26T11:47:48;28.40;89.50
20041;DHT22;10181;48.072;9.884;2023-06-26T11:50:15;28.30;90.10
20041;DHT22;10181;48.072;9.884;2023-06-26T11:52:45;28.30;87.10
20041;DHT22;10181;48.072;9.884;2023-06-26T11:55:11;28.20;87.70
20041;DHT22;10181;48.072;9.884;2023-06-26T11:57:37;28.10;89.10
20041;DHT22;10181;48.072;9.884;2023-06-26T12:00:16;27.90;87.10
20041;DHT22;10181;48.072;9.884;2023-06-26T12:02:46;27.90;90.10
20041;DHT22;10181;48.072;9.884;2023-06-26T12:05:13;28.00;89.30
20041;DHT22;10181;48.072;9.884;2023-06-26T12:07:41;28.00;90.80
20041;DHT22;10181;48.072;9.884;2023-06-26T12:10:08;28.20;90.30
20041;DHT22;10181;48.072;9.884;2023-06-26T12:12:34;28.40;90.20
20041;DHT22;10181;48.072;9.884;2023-06-26T12:15:00;28.40;91.20
20041;DHT22;10181;48.072;9.884;2023-06-26T12:17:26;28.40;89.30
20041;DHT22;10181;48.072;9.884;2023-06-26T12:19:52;28.50;90.30
20041;DHT22;10181;48.072;9.884;2023-06-26T12:22:18;28.50;93.20
20041;DHT22;10181;48.072;9.884;2023-06-26T12:24:46;28.50;91.10
20041;DHT22;10181;48.072;9.884;2023-06-26T12:27:14;28.70;91.00
20041;DHT22;10181;48.072;9.884;2023-06-26T12:29:45;28.80;90.20
20041;DHT22;10181;48.072;9.884;2023-06-26T12:32:12;28.70;91.00
20041;DHT22;10181;48.072;9.884;2023-06-26T12:34:39;28.70;91.40
20041;DHT22;10181;48.072;9.884;2023-06-26T12:37:08;28.70;90.90
20041;DHT22;10181;48.072;9.884;2023-06-26T12:39:53;28.70;90.00
20041;DHT22;10181;48.072;9.884;2023-06-26T12:42:24;28.80;87.70
20041;DHT22;10181;48.072;9.884;2023-06-26T12:44:50;28.70;90.50
20041;DHT22;10181;48.072;9.884;2023-06-26T12:47:18;28.60;91.20
20041;DHT22;10181;48.072;9.884;2023-06-26T12:49:45;28.50;90.80
20041;DHT22;10181;48.072;9.884;2023-06-26T12:52:15;28.20;90.70
20041;DHT22;10181;48.072;9.884;2023-06-26T12:54:42;28.00;90.70
20041;DHT22;10181;48.072;9.884;2023-06-26T12:57:09;27.60;91.50
20041;DHT22;10181;48.072;9.884;2023-06-26T12:59:37;27.40;91.60
20041;DHT22;10181;48.072;9.884;2023-06-26T13:02:03;27.20;91.90
20041;DHT22;10181;48.072;9.884;2023-06-26T13:04:29;26.90;92.60
20041;DHT22;10181;48.072;9.884;2023-06-26T13:06:55;26.60;93.90
20041;DHT22;10181;48.072;9.884;2023-06-26T13:09:22;26.10;95.10
20041;DHT22;10181;48.072;9.884;2023-06-26T13:11:49;25.40;96.50
20041;DHT22;10181;48.072;9.884;2023-06-26T13:14:15;24.60;97.30
20041;DHT22;10181;48.072;9.884;2023-06-26T13:16:40;24.00;98.50
20041;DHT22;10181;48.072;9.884;2023-06-26T13:19:06;23.30;99.90
20041;DHT22;10181;48.072;9.884;2023-06-26T13:21:33;22.60;99.90
20041;DHT22;10181;48.072;9.884;2023-06-26T13:23:59;22.00;99.90
20041;DHT22;10181;48.072;9.884;2023-06-26T13:26:25;21.60;99.90
20041;DHT22;10181;48.072;9.884;2023-06-26T13:28:52;21.50;99.90
20041;DHT22;10181;48.072;9.884;2023-06-26T13:31:18;21.50;99.90
20041;DHT22;10181;48.072;9.884;2023-06-26T13:33:46;21.60;99.90
20041;DHT22;10181;48.072;9.884;2023-06-26T13:36:14;21.90;99.90
20041;DHT22;10181;48.072;9.884;2023-06-26T13:38:39;22.30;99.90
20041;DHT22;10181;48.072;9.884;2023-06-26T13:41:05;22.70;99.90
20041;DHT22;10181;48.072;9.884;2023-06-26T13:43:31;23.10;99.90
20041;DHT22;10181;48.072;9.884;2023-06-26T13:45:57;23.50;99.90
20041;DHT22;10181;48.072;9.884;2023-06-26T13:48:23;23.70;99.90
20041;DHT22;10181;48.072;9.884;2023-06-26T13:50:50;23.80;99.90
20041;DHT22;10181;48.072;9.884;2023-06-26T13:53:16;24.00;99.90
20041;DHT22;10181;48.072;9.884;2023-06-26T13:55:42;24.20;99.90
20041;DHT22;10181;48.072;9.884;2023-06-26T13:58:08;24.40;99.90
20041;DHT22;10181;48.072;9.884;2023-06-26T14:00:35;24.70;99.90
20041;DHT22;10181;48.072;9.884;2023-06-26T14:03:02;24.90;99.90
20041;DHT22;10181;48.072;9.884;2023-06-26T14:05:35;25.00;99.90
20041;DHT22;10181;48.072;9.884;2023-06-26T14:08:03;25.20;99.90
20041;DHT22;10181;48.072;9.884;2023-06-26T14:10:29;25.40;99.90
20041;DHT22;10181;48.072;9.884;2023-06-26T14:12:55;25.50;99.90
20041;DHT22;10181;48.072;9.884;2023-06-26T14:15:21;25.50;99.90
20041;DHT22;10181;48.072;9.884;2023-06-26T14:17:47;25.70;99.90
20041;DHT22;10181;48.072;9.884;2023-06-26T14:20:15;25.70;99.90
20041;DHT22;10181;48.072;9.884;2023-06-26T14:22:43;25.80;99.90
20041;DHT22;10181;48.072;9.884;2023-06-26T14:25:10;26.00;99.90
20041;DHT22;10181;48.072;9.884;2023-06-26T14:27:36;26.10;99.90
20041;DHT22;10181;48.072;9.884;2023-06-26T14:30:03;26.00;99.90
20041;DHT22;10181;48.072;9.884;2023-06-26T14:32:29;25.80;99.90
20041;DHT22;10181;48.072;9.884;2023-06-26T14:34:56;25.60;99.90
20041;DHT22;10181;48.072;9.884;2023-06-26T14:37:22;25.40;99.90
20041;DHT22;10181;48.072;9.884;2023-06-26T14:39:48;25.20;99.90
20041;DHT22;10181;48.072;9.884;2023-06-26T14:42:13;25.10;99.90
20041;DHT22;10181;48.072;9.884;2023-06-26T14:44:39;25.10;99.90
20041;DHT22;10181;48.072;9.884;2023-06-26T14:47:05;25.10;99.90
20041;DHT22;10181;48.072;9.884;2023-06-26T14:49:30;25.20;99.90
20041;DHT22;10181;48.072;9.884;2023-06-26T14:51:56;25.30;99.90
20041;DHT22;10181;48.072;9.884;2023-06-26T14:54:22;25.50;99.90
20041;DHT22;10181;48.072;9.884;2023-06-26T14:56:48;25.70;99.90
20041;DHT22;10181;48.072;9.884;2023-06-26T14:59:14;25.80;99.90
20041;DHT22;10181;48.072;9.884;2023-06-26T15:01:39;25.90;99.90
20041;DHT22;10181;48.072;9.884;2023-06-26T15:04:06;25.90;99.90
20041;DHT22;10181;48.072;9.884;2023-06-26T15:06:32;25.80;99.90
20041;DHT22;10181;48.072;9.884;2023-06-26T15:08:58;25.60;99.90
20041;DHT22;10181;48.072;9.884;2023-06-26T15:11:24;25.50;99.90
20041;DHT22;10181;48.072;9.884;2023-06-26T15:13:50;25.30;99.90
20041;DHT22;10181;48.072;9.884;2023-06-26T15:16:15;25.20;99.90
20041;DHT22;10181;48.072;9.884;2023-06-26T15:18:41;25.10;99.90
20041;DHT22;10181;48.072;9.884;2023-06-26T15:21:07;25.00;99.90
20041;DHT22;10181;48.072;9.884;2023-06-26T15:23:33;25.00;99.90
20041;DHT22;10181;48.072;9.884;2023-06-26T15:25:59;24.90;99.90
20041;DHT22;10181;48.072;9.884;2023-06-26T15:28:25;24.80;99.90
20041;DHT22;10181;48.072;9.884;2023-06-26T15:30:51;24.70;99.90
20041;DHT22;10181;48.072;9.884;2023-06-26T15:33:16;24.70;99.90
20041;DHT22;10181;48.072;9.884;2023-06-26T15:35:42;24.70;99.90
20041;DHT22;10181;48.072;9.884;2023-06-26T15:38:08;24.80;99.90